createdAt,value
2023-08-25T00:03:52.697Z,18.60
2023-08-25T00:08:59.505Z,18.40
2023-08-25T00:14:06.632Z,18.30
2023-08-25T00:19:15.129Z,18.40
2023-08-25T00:24:22.782Z,18.30
2023-08-25T00:29:29.905Z,18.60
2023-08-25T00:34:38.696Z,18.90
2023-08-25T00:39:46.988Z,19.00
2023-08-25T00:44:54.401Z,19.20
2023-08-25T00:50:02.730Z,19.40
2023-08-25T00:55:10.126Z,20.70
2023-08-25T01:00:17.296Z,21.40
2023-08-25T01:05:26.681Z,21.70
2023-08-25T01:10:53.767Z,22.20
2023-08-25T01:16:00.864Z,22.30
2023-08-25T01:21:09.320Z,22.60
2023-08-25T01:26:17.851Z,22.70
2023-08-25T01:31:24.873Z,22.60
2023-08-25T01:36:44.782Z,23.00
2023-08-25T01:41:58.093Z,23.30
2023-08-25T01:47:08.703Z,23.90
2023-08-25T01:52:16.147Z,24.00
2023-08-25T01:57:23.472Z,23.80
2023-08-25T02:02:30.485Z,23.50
2023-08-25T02:07:37.205Z,23.70
2023-08-25T02:12:44.824Z,24.70
2023-08-25T02:17:52.272Z,24.50
2023-08-25T02:22:59.043Z,24.70
2023-08-25T02:28:06.408Z,23.80
2023-08-25T02:33:14.258Z,23.50
2023-08-25T02:38:21.005Z,23.20
2023-08-25T02:43:27.802Z,23.00
2023-08-25T02:48:34.868Z,22.80
2023-08-25T02:53:41.573Z,22.30
2023-08-25T02:58:48.107Z,22.00
2023-08-25T03:03:56.355Z,21.70
2023-08-25T03:09:05.189Z,21.40
2023-08-25T03:14:12.204Z,21.50
2023-08-25T03:19:20.059Z,21.40
2023-08-25T03:24:28.189Z,21.40
2023-08-25T03:29:35.306Z,21.00
2023-08-25T03:34:42.661Z,20.90
2023-08-25T03:39:49.386Z,21.00
2023-08-25T03:44:56.209Z,20.90
2023-08-25T03:50:02.681Z,21.00
2023-08-25T03:55:10.670Z,20.70
2023-08-25T04:00:17.974Z,20.40
2023-08-25T04:05:25.321Z,20.80
2023-08-25T04:10:33.570Z,20.50
2023-08-25T04:15:40.452Z,20.50
2023-08-25T04:20:47.010Z,21.30
2023-08-25T04:25:53.660Z,21.10
2023-08-25T04:31:00.721Z,20.90
2023-08-25T04:36:07.696Z,20.70
2023-08-25T04:41:15.029Z,20.70
2023-08-25T04:46:21.898Z,20.70
2023-08-25T04:51:28.699Z,20.60
2023-08-25T04:56:36.536Z,20.70
2023-08-25T05:01:43.267Z,20.80
2023-08-25T05:06:50.465Z,20.70
2023-08-25T05:11:57.307Z,20.70
2023-08-25T05:17:04.900Z,20.60
2023-08-25T05:22:12.134Z,20.60
2023-08-25T05:27:18.961Z,20.60
2023-08-25T05:32:26.098Z,20.90
2023-08-25T05:37:34.683Z,21.30
2023-08-25T05:42:41.696Z,21.60
2023-08-25T05:47:49.470Z,21.60
2023-08-25T05:52:57.286Z,21.70
2023-08-25T05:58:04.074Z,22.10
2023-08-25T06:03:10.889Z,22.30
2023-08-25T06:08:18.188Z,22.40
2023-08-25T06:13:25.318Z,22.70
2023-08-25T06:18:32.499Z,22.60
2023-08-25T06:23:39.278Z,22.70
2023-08-25T06:28:46.340Z,23.00
2023-08-25T06:33:54.232Z,23.30
2023-08-25T06:39:01.782Z,23.80
2023-08-25T06:44:08.328Z,24.10
2023-08-25T06:49:15.572Z,24.50
2023-08-25T06:54:23.294Z,24.70
2023-08-25T06:59:30.462Z,24.50
2023-08-25T07:04:37.769Z,24.40
2023-08-25T07:09:45.792Z,24.60
2023-08-25T07:14:55.146Z,24.90
2023-08-25T07:20:01.744Z,25.10
2023-08-25T07:25:09.710Z,25.60
2023-08-25T07:30:16.603Z,25.50
2023-08-25T07:35:23.618Z,25.80
2023-08-25T07:40:30.917Z,26.10
2023-08-25T07:45:38.571Z,26.50
2023-08-25T07:50:46.276Z,26.30
2023-08-25T07:55:53.126Z,26.60
2023-08-25T08:00:59.909Z,26.80
2023-08-25T08:06:07.494Z,26.60
2023-08-25T08:11:14.564Z,27.00
2023-08-25T08:16:21.589Z,27.30
2023-08-25T08:21:28.821Z,27.50
2023-08-25T08:26:38.802Z,27.70
2023-08-25T08:31:47.949Z,27.70
2023-08-25T08:36:55.705Z,28.10
2023-08-25T08:42:03.724Z,28.40
2023-08-25T08:47:11.909Z,28.70
2023-08-25T08:52:19.914Z,28.30
2023-08-25T08:57:30.242Z,28.70
2023-08-25T09:02:37.533Z,28.60
2023-08-25T09:07:50.593Z,29.10
2023-08-25T09:13:00.849Z,29.20
2023-08-25T09:18:11.409Z,29.10
2023-08-25T09:23:19.239Z,28.90
2023-08-25T09:28:29.041Z,29.10
2023-08-25T09:33:36.314Z,29.00
2023-08-25T09:38:55.175Z,29.90
2023-08-25T09:44:05.716Z,30.30
2023-08-25T09:49:16.493Z,29.70
2023-08-25T09:54:24.092Z,30.40
2023-08-25T09:59:31.126Z,30.40
2023-08-25T10:04:38.145Z,30.50
2023-08-25T10:09:46.739Z,30.50
2023-08-25T10:14:54.999Z,30.30
2023-08-25T10:20:05.239Z,30.40
2023-08-25T10:25:12.923Z,30.90
2023-08-25T10:30:21.238Z,31.00
2023-08-25T10:35:51.601Z,31.30
2023-08-25T10:40:59.737Z,31.70
2023-08-25T10:46:10.992Z,31.80
2023-08-25T10:51:23.373Z,31.50
2023-08-25T10:56:31.075Z,31.70
2023-08-25T11:01:43.688Z,31.40
2023-08-25T11:06:55.520Z,31.60
2023-08-25T11:12:08.669Z,32.00
2023-08-25T11:17:15.417Z,31.40
2023-08-25T11:22:22.500Z,31.70
2023-08-25T11:27:30.238Z,32.00
2023-08-25T11:32:39.068Z,31.70
2023-08-25T11:37:47.605Z,31.60
2023-08-25T11:42:55.000Z,31.80
2023-08-25T11:48:01.864Z,31.60
2023-08-25T11:53:09.417Z,31.60
2023-08-25T11:58:16.668Z,32.00
2023-08-25T12:03:25.010Z,31.80
2023-08-25T12:08:33.305Z,32.00
2023-08-25T12:13:45.763Z,32.00
2023-08-25T12:18:54.567Z,31.90
2023-08-25T12:24:01.204Z,31.80
2023-08-25T12:29:09.714Z,31.50
2023-08-25T12:34:16.474Z,31.40
2023-08-25T12:39:24.324Z,30.80
2023-08-25T12:44:31.297Z,30.60
2023-08-25T12:49:38.732Z,30.50
2023-08-25T12:54:46.625Z,30.40
2023-08-25T12:59:53.265Z,30.80
2023-08-25T13:04:59.731Z,29.80
2023-08-25T13:10:09.357Z,29.50
2023-08-25T13:15:16.608Z,29.70
2023-08-25T13:20:23.577Z,29.30
2023-08-25T13:25:30.575Z,29.10
2023-08-25T13:30:38.164Z,29.00
2023-08-25T13:35:46.881Z,29.10
2023-08-25T13:40:54.783Z,28.80
2023-08-25T13:46:03.462Z,28.60
2023-08-25T13:51:10.791Z,28.30
2023-08-25T13:56:17.557Z,28.10
2023-08-25T14:01:24.890Z,28.10
2023-08-25T14:06:32.169Z,27.70
2023-08-25T14:11:40.002Z,27.60
2023-08-25T14:16:47.220Z,27.50
2023-08-25T14:21:53.791Z,27.30
2023-08-25T14:27:00.327Z,27.40
2023-08-25T14:32:08.770Z,27.40
2023-08-25T14:37:15.781Z,27.30
2023-08-25T14:42:23.386Z,27.30
2023-08-25T14:47:30.492Z,27.30
2023-08-25T14:52:37.166Z,27.40
2023-08-25T14:57:46.558Z,27.60
2023-08-25T15:02:55.104Z,27.30
2023-08-25T15:08:01.864Z,27.30
2023-08-25T15:13:10.001Z,27.50
2023-08-25T15:18:18.189Z,27.30
2023-08-25T15:23:25.456Z,27.90
2023-08-25T15:28:34.243Z,28.20
2023-08-25T15:33:44.043Z,28.40
2023-08-25T15:38:50.447Z,28.00
2023-08-25T15:43:59.736Z,28.30
2023-08-25T15:49:06.517Z,28.50
2023-08-25T15:54:13.546Z,28.40
2023-08-25T15:59:20.880Z,28.50
2023-08-25T16:04:28.302Z,28.60
2023-08-25T16:09:35.337Z,28.40
2023-08-25T16:14:42.382Z,28.10
2023-08-25T16:19:49.527Z,27.70
2023-08-25T16:24:56.779Z,27.60
2023-08-25T16:30:05.380Z,27.60
2023-08-25T16:35:13.982Z,27.40
2023-08-25T16:40:21.172Z,27.20
2023-08-25T16:45:31.132Z,27.10
2023-08-25T16:50:39.207Z,27.20
2023-08-25T16:55:46.799Z,26.80
2023-08-25T17:00:54.885Z,26.80
2023-08-25T17:06:04.679Z,26.70
2023-08-25T17:11:11.789Z,26.70
2023-08-25T17:16:19.350Z,26.80
2023-08-25T17:21:26.100Z,26.70
2023-08-25T17:26:32.748Z,26.40
2023-08-25T17:31:39.292Z,26.40
2023-08-25T17:36:46.669Z,26.20
2023-08-25T17:41:53.664Z,26.00
2023-08-25T17:46:59.970Z,26.00
2023-08-25T17:52:06.758Z,25.90
2023-08-25T17:57:16.436Z,25.90
2023-08-25T18:02:23.397Z,25.80
2023-08-25T18:07:31.464Z,25.80
2023-08-25T18:12:38.049Z,25.70
2023-08-25T18:17:46.771Z,25.70
2023-08-25T18:22:54.423Z,25.70
2023-08-25T18:28:01.213Z,25.70
2023-08-25T18:33:08.566Z,25.50
2023-08-25T18:38:17.646Z,25.40
2023-08-25T18:43:24.796Z,25.40
2023-08-25T18:48:31.501Z,25.40
2023-08-25T18:53:38.915Z,25.30
2023-08-25T18:58:46.513Z,25.30
2023-08-25T19:03:54.013Z,25.20
2023-08-25T19:09:00.362Z,25.10
2023-08-25T19:14:07.153Z,25.10
2023-08-25T19:19:13.815Z,24.90
2023-08-25T19:24:20.450Z,24.90
2023-08-25T19:29:28.050Z,24.90
2023-08-25T19:34:35.502Z,24.80
2023-08-25T19:39:42.422Z,24.70
2023-08-25T19:44:50.669Z,24.70
2023-08-25T19:49:57.794Z,24.70
2023-08-25T19:55:06.684Z,24.80
2023-08-25T20:00:14.694Z,24.80
2023-08-25T20:05:21.988Z,24.80
2023-08-25T20:10:30.562Z,24.80
2023-08-25T20:15:37.923Z,24.80
2023-08-25T20:20:45.836Z,24.80
2023-08-25T20:25:56.674Z,24.80
2023-08-25T20:31:03.959Z,24.90
2023-08-25T20:36:11.851Z,24.90
2023-08-25T20:41:18.228Z,24.90
2023-08-25T20:46:25.061Z,24.80
2023-08-25T20:51:32.851Z,24.40
2023-08-25T20:56:39.622Z,24.30
2023-08-25T21:01:46.218Z,24.20
2023-08-25T21:06:52.981Z,24.20
2023-08-25T21:11:59.832Z,24.20
2023-08-25T21:17:06.734Z,24.00
2023-08-25T21:22:13.046Z,23.90
2023-08-25T21:27:19.423Z,23.60
2023-08-25T21:32:26.337Z,23.30
2023-08-25T21:37:34.206Z,23.50
2023-08-25T21:42:40.769Z,24.00
2023-08-25T21:47:47.461Z,24.00
2023-08-25T21:52:54.466Z,23.70
2023-08-25T21:58:01.317Z,23.20
2023-08-25T22:03:08.232Z,22.90
2023-08-25T22:08:15.640Z,22.70
2023-08-25T22:13:22.487Z,22.60
2023-08-25T22:18:29.098Z,22.20
2023-08-25T22:23:35.738Z,22.00
2023-08-25T22:28:42.815Z,22.10
2023-08-25T22:38:58.152Z,21.80
2023-08-25T22:44:04.813Z,21.80
2023-08-25T22:49:12.084Z,21.70
2023-08-25T22:54:20.319Z,21.40
2023-08-25T22:59:27.087Z,21.20
2023-08-25T23:04:33.728Z,21.10
2023-08-25T23:09:40.863Z,20.90
2023-08-25T23:14:47.237Z,21.20
2023-08-25T23:19:53.672Z,21.50
2023-08-25T23:25:00.057Z,21.40
2023-08-25T23:30:08.122Z,20.60
2023-08-25T23:35:15.699Z,20.90
2023-08-25T23:40:22.903Z,20.90
2023-08-25T23:45:29.565Z,20.70
2023-08-25T23:50:36.142Z,20.30
2023-08-25T23:55:43.159Z,20.50
